Time;durP1;ratioP1;P1;durP2;ratioP2;P2;SDS_P1;SDS_P2;PMS_P1;PMS_P2;Temp;Humidity;BMP_temperature;BMP_pressure;BME280_temperature;BME280_humidity;BME280_pressure;Samples;Min_cycle;Max_cycle;Signal;HPM_P1;HPM_P2
2022/01/20 00:01:39;;;;;;;24.00;13.18;;;;;;;;;;5140732;27;20579;-63
2022/01/20 00:04:15;;;;;;;23.60;12.57;;;;;;;;;;5140817;27;20194;-63
2022/01/20 00:09:54;;;;;;;20.67;12.18;;;;;;;;;;5125386;27;20194;-63
2022/01/20 00:26:17;;;;;;;15.20;8.57;;;;;;;;;;5080261;27;20194;-65
2022/01/20 00:28:49;;;;;;;14.88;8.35;;;;;;;;;;5139642;27;20198;-64
2022/01/20 00:31:33;;;;;;;14.65;8.10;;;;;;;;;;5140810;27;20210;-63
2022/01/20 00:34:12;;;;;;;13.52;7.43;;;;;;;;;;5136479;27;20221;-62
2022/01/20 00:39:33;;;;;;;12.80;7.35;;;;;;;;;;5070425;27;20206;-63
2022/01/20 00:42:01;;;;;;;13.50;7.28;;;;;;;;;;5140540;27;20202;-63
2022/01/20 00:44:30;;;;;;;12.88;6.40;;;;;;;;;;5140351;27;20475;-62
2022/01/20 00:46:57;;;;;;;13.20;6.28;;;;;;;;;;5140304;27;20217;-63
2022/01/20 00:49:25;;;;;;;12.50;6.60;;;;;;;;;;5122211;27;20195;-63
2022/01/20 00:51:52;;;;;;;9.43;5.75;;;;;;;;;;5131152;27;20198;-63
2022/01/20 00:54:20;;;;;;;10.45;5.93;;;;;;;;;;5139483;27;20229;-64
2022/01/20 00:56:47;;;;;;;8.98;5.50;;;;;;;;;;5140503;27;20213;-63
2022/01/20 00:59:15;;;;;;;9.77;5.45;;;;;;;;;;5129008;27;20216;-63
2022/01/20 01:01:43;;;;;;;8.43;4.97;;;;;;;;;;5140751;27;20208;-63
2022/01/20 01:04:11;;;;;;;8.70;4.72;;;;;;;;;;5121572;27;20210;-65
2022/01/20 01:06:59;;;;;;;8.05;4.70;;;;;;;;;;5133773;27;20493;-65
2022/01/20 01:09:27;;;;;;;7.63;4.55;;;;;;;;;;5116713;27;20203;-65
2022/01/20 01:11:59;;;;;;;6.70;4.15;;;;;;;;;;5119740;27;20202;-65
2022/01/20 01:14:29;;;;;;;6.28;4.10;;;;;;;;;;5116849;27;20303;-66
2022/01/20 01:22:30;;;;;;;7.88;4.00;;;;;;;;;;5130626;27;20266;-65
2022/01/20 01:25:00;;;;;;;6.00;3.65;;;;;;;;;;5140113;27;20209;-64
2022/01/20 01:27:29;;;;;;;6.63;3.83;;;;;;;;;;5127510;27;20195;-63
2022/01/20 01:30:12;;;;;;;6.82;3.50;;;;;;;;;;5138229;27;20198;-65
2022/01/20 01:32:50;;;;;;;5.22;3.15;;;;;;;;;;5138439;27;20195;-65
2022/01/20 01:35:20;;;;;;;5.55;3.20;;;;;;;;;;5130516;27;20213;-64
2022/01/20 01:40:33;;;;;;;5.18;3.08;;;;;;;;;;5119005;28;20645;-64
2022/01/20 01:43:05;;;;;;;5.38;3.20;;;;;;;;;;5125649;27;20199;-65
2022/01/20 01:45:35;;;;;;;4.43;2.85;;;;;;;;;;5139345;27;20221;-65
2022/01/20 01:48:05;;;;;;;4.13;2.72;;;;;;;;;;5139181;27;20263;-64
2022/01/20 01:50:32;;;;;;;5.10;2.75;;;;;;;;;;5139059;27;20202;-65
2022/01/20 01:53:00;;;;;;;3.80;2.70;;;;;;;;;;5133698;27;20206;-65
2022/01/20 01:55:28;;;;;;;6.35;2.70;;;;;;;;;;5128468;27;20202;-65
2022/01/20 01:57:56;;;;;;;5.10;2.60;;;;;;;;;;5123921;27;20209;-65
2022/01/20 02:00:23;;;;;;;4.30;2.40;;;;;;;;;;5137551;27;20198;-65
2022/01/20 02:02:50;;;;;;;5.32;2.67;;;;;;;;;;5136972;27;20206;-65
2022/01/20 02:05:20;;;;;;;6.18;2.95;;;;;;;;;;5133562;27;20199;-66
2022/01/20 02:08:22;;;;;;;15.60;4.60;;;;;;;;;;5120680;27;20210;-65
2022/01/20 02:19:10;;;;;;;20.08;5.80;;;;;;;;;;5123992;27;20277;-64
2022/01/20 02:21:47;;;;;;;17.13;5.28;;;;;;;;;;5124870;27;20238;-65
2022/01/20 02:24:14;;;;;;;14.98;5.22;;;;;;;;;;5103804;28;20654;-67
2022/01/20 02:26:41;;;;;;;14.57;5.43;;;;;;;;;;5117568;27;20222;-64
2022/01/20 02:29:09;;;;;;;15.10;4.65;;;;;;;;;;5117361;28;20202;-65
2022/01/20 02:31:36;;;;;;;10.65;4.57;;;;;;;;;;5116265;28;20195;-65
2022/01/20 02:34:04;;;;;;;10.05;3.97;;;;;;;;;;5109898;28;20246;-65
2022/01/20 02:36:31;;;;;;;11.70;4.50;;;;;;;;;;5117829;28;20199;-64
2022/01/20 02:39:07;;;;;;;9.13;3.97;;;;;;;;;;5117545;28;20665;-64
2022/01/20 02:47:12;;;;;;;8.85;3.38;;;;;;;;;;5117839;28;20340;-64
2022/01/20 02:49:39;;;;;;;7.10;3.03;;;;;;;;;;5118297;28;20291;-66
2022/01/20 02:52:07;;;;;;;7.30;3.30;;;;;;;;;;5118162;28;20504;-65
2022/01/20 02:54:36;;;;;;;6.65;2.85;;;;;;;;;;5115968;28;20227;-64
2022/01/20 02:57:04;;;;;;;7.00;2.90;;;;;;;;;;5116972;28;20199;-64
2022/01/20 02:59:32;;;;;;;5.28;2.50;;;;;;;;;;5101731;28;20207;-66
2022/01/20 03:01:59;;;;;;;7.75;2.83;;;;;;;;;;5118322;28;20203;-65
2022/01/20 03:04:27;;;;;;;7.30;2.75;;;;;;;;;;5117606;28;20648;-64
2022/01/20 03:06:54;;;;;;;6.43;2.75;;;;;;;;;;5117949;28;20287;-64
2022/01/20 03:09:22;;;;;;;6.85;2.47;;;;;;;;;;5117714;28;20202;-64
2022/01/20 03:11:51;;;;;;;3.85;2.28;;;;;;;;;;5118104;28;20211;-65
2022/01/20 03:14:18;;;;;;;4.50;2.03;;;;;;;;;;5117640;28;20233;-66
2022/01/20 03:16:46;;;;;;;4.28;2.30;;;;;;;;;;5117737;28;20477;-65
2022/01/20 03:19:14;;;;;;;4.60;1.83;;;;;;;;;;5117590;28;20208;-65
2022/01/20 03:21:42;;;;;;;5.47;2.10;;;;;;;;;;5130903;27;20253;-65
2022/01/20 03:24:10;;;;;;;4.53;2.30;;;;;;;;;;5137676;28;20620;-65
2022/01/20 03:26:38;;;;;;;3.72;1.73;;;;;;;;;;5104067;28;20194;-65
2022/01/20 03:29:07;;;;;;;4.22;1.75;;;;;;;;;;5137659;28;20198;-65
2022/01/20 03:31:34;;;;;;;5.28;1.95;;;;;;;;;;5118611;28;20202;-65
2022/01/20 03:34:02;;;;;;;3.97;1.98;;;;;;;;;;5128814;28;20214;-65
2022/01/20 03:36:29;;;;;;;3.42;2.00;;;;;;;;;;5124018;28;20249;-65
2022/01/20 03:38:57;;;;;;;2.78;1.48;;;;;;;;;;5127142;28;20562;-64
2022/01/20 03:41:24;;;;;;;3.58;1.60;;;;;;;;;;5138079;28;20213;-65
2022/01/20 03:43:51;;;;;;;3.05;1.67;;;;;;;;;;5138320;28;20507;-64
2022/01/20 03:46:20;;;;;;;3.10;1.42;;;;;;;;;;5138093;28;20213;-64
2022/01/20 03:48:52;;;;;;;2.53;1.45;;;;;;;;;;5135549;28;20577;-65
2022/01/20 03:51:21;;;;;;;2.45;1.42;;;;;;;;;;5134444;28;20210;-65
2022/01/20 03:53:50;;;;;;;2.15;1.42;;;;;;;;;;5117613;28;20215;-64
2022/01/20 03:56:17;;;;;;;3.45;1.58;;;;;;;;;;5117184;28;20207;-65
2022/01/20 03:58:45;;;;;;;2.42;1.27;;;;;;;;;;5117621;28;20194;-68
2022/01/20 04:01:14;;;;;;;2.58;1.48;;;;;;;;;;5117506;28;20458;-65
2022/01/20 04:03:43;;;;;;;1.73;1.25;;;;;;;;;;5131026;28;20198;-64
2022/01/20 04:06:10;;;;;;;2.42;1.20;;;;;;;;;;5139397;27;20220;-67
2022/01/20 04:08:39;;;;;;;2.88;1.33;;;;;;;;;;5129905;27;20203;-66
2022/01/20 04:11:07;;;;;;;1.88;1.30;;;;;;;;;;5121145;28;20214;-64
2022/01/20 04:13:35;;;;;;;3.13;1.30;;;;;;;;;;5119879;28;20199;-67
2022/01/20 04:16:11;;;;;;;2.72;1.20;;;;;;;;;;5120965;28;20604;-66
2022/01/20 04:18:38;;;;;;;2.30;1.13;;;;;;;;;;5122048;27;20225;-66
2022/01/20 04:21:07;;;;;;;2.25;1.40;;;;;;;;;;5125613;27;20644;-66
2022/01/20 04:23:34;;;;;;;1.55;1.02;;;;;;;;;;5140710;27;20219;-66
2022/01/20 04:26:02;;;;;;;1.83;1.15;;;;;;;;;;5140904;27;20210;-66
2022/01/20 04:28:29;;;;;;;1.52;1.20;;;;;;;;;;5141285;27;20202;-66
2022/01/20 04:30:57;;;;;;;2.42;1.00;;;;;;;;;;5140237;27;20198;-66
2022/01/20 04:33:24;;;;;;;2.00;0.90;;;;;;;;;;5140842;27;20206;-66
2022/01/20 04:35:51;;;;;;;1.50;0.93;;;;;;;;;;5141123;27;20234;-66
2022/01/20 04:38:20;;;;;;;1.40;1.00;;;;;;;;;;5129890;27;20195;-66
2022/01/20 04:40:48;;;;;;;1.55;1.00;;;;;;;;;;5140250;27;20270;-66
2022/01/20 04:43:15;;;;;;;2.10;1.10;;;;;;;;;;5139994;27;20209;-64
2022/01/20 04:45:48;;;;;;;1.83;1.02;;;;;;;;;;5140988;27;20205;-67
2022/01/20 04:48:23;;;;;;;1.67;1.00;;;;;;;;;;5138914;27;20195;-66
2022/01/20 04:59:07;;;;;;;0.90;0.60;;;;;;;;;;5139511;27;20274;-66
2022/01/20 05:01:34;;;;;;;1.40;0.80;;;;;;;;;;5135836;27;20209;-67
2022/01/20 05:04:03;;;;;;;1.58;0.85;;;;;;;;;;5132804;27;20202;-66
2022/01/20 05:06:30;;;;;;;1.20;0.80;;;;;;;;;;5140266;27;20195;-66
2022/01/20 05:08:59;;;;;;;1.80;0.90;;;;;;;;;;5139561;27;20205;-64
2022/01/20 05:11:26;;;;;;;0.93;0.60;;;;;;;;;;5139640;27;20206;-65
2022/01/20 05:13:54;;;;;;;0.90;0.70;;;;;;;;;;5139921;27;20222;-66
2022/01/20 05:16:24;;;;;;;1.83;0.80;;;;;;;;;;5140521;27;20206;-67
2022/01/20 05:18:51;;;;;;;1.67;0.90;;;;;;;;;;5136139;27;20206;-65
2022/01/20 05:21:18;;;;;;;1.88;0.85;;;;;;;;;;5138998;27;20234;-65
2022/01/20 05:23:45;;;;;;;1.58;0.90;;;;;;;;;;5126706;27;20210;-64
2022/01/20 05:26:14;;;;;;;1.52;0.88;;;;;;;;;;5137501;27;20201;-65
2022/01/20 05:28:42;;;;;;;1.23;0.77;;;;;;;;;;5129165;27;20195;-65
2022/01/20 05:31:09;;;;;;;1.10;0.73;;;;;;;;;;5138313;27;20608;-65
2022/01/20 05:33:36;;;;;;;1.08;0.63;;;;;;;;;;5129087;27;20195;-64
2022/01/20 05:36:04;;;;;;;1.20;0.80;;;;;;;;;;5131823;27;20226;-64
2022/01/20 05:38:32;;;;;;;1.10;0.70;;;;;;;;;;5134148;27;20195;-66
2022/01/20 05:40:59;;;;;;;1.35;0.60;;;;;;;;;;5131683;27;20224;-64
2022/01/20 05:43:28;;;;;;;0.80;0.70;;;;;;;;;;5137973;27;20206;-65
2022/01/20 05:45:55;;;;;;;1.20;0.80;;;;;;;;;;5122236;27;20205;-66
2022/01/20 05:48:32;;;;;;;1.25;0.77;;;;;;;;;;5137059;27;20194;-68
2022/01/20 05:51:00;;;;;;;2.17;1.00;;;;;;;;;;5137975;27;20209;-65
2022/01/20 05:53:27;;;;;;;1.50;0.88;;;;;;;;;;5137968;27;20635;-67
2022/01/20 05:55:55;;;;;;;1.15;0.68;;;;;;;;;;5137822;27;20218;-65
2022/01/20 05:58:22;;;;;;;2.58;0.88;;;;;;;;;;5137046;27;20198;-65
2022/01/20 06:00:52;;;;;;;1.38;0.70;;;;;;;;;;5136914;27;20221;-66
2022/01/20 06:03:37;;;;;;;1.42;0.73;;;;;;;;;;5127373;27;20199;-67
2022/01/20 06:06:06;;;;;;;1.08;0.77;;;;;;;;;;5136551;27;20190;-67
2022/01/20 06:08:33;;;;;;;0.73;0.70;;;;;;;;;;5136511;27;20206;-67
2022/01/20 06:11:00;;;;;;;1.65;0.80;;;;;;;;;;5137068;27;20228;-67
2022/01/20 06:13:28;;;;;;;1.13;0.70;;;;;;;;;;5120892;27;20210;-64
2022/01/20 06:15:57;;;;;;;1.40;0.60;;;;;;;;;;5136209;27;20225;-67
2022/01/20 06:18:24;;;;;;;1.05;0.50;;;;;;;;;;5134921;27;20202;-66
2022/01/20 06:20:52;;;;;;;1.05;0.70;;;;;;;;;;5135190;27;20222;-65
2022/01/20 06:23:19;;;;;;;2.22;0.90;;;;;;;;;;5134712;27;20197;-65
2022/01/20 06:25:47;;;;;;;0.95;0.60;;;;;;;;;;5135894;27;20445;-65
2022/01/20 06:28:14;;;;;;;0.63;0.60;;;;;;;;;;5135488;27;20206;-66
2022/01/20 06:30:42;;;;;;;1.65;0.73;;;;;;;;;;5135789;27;20202;-64
2022/01/20 06:33:10;;;;;;;0.82;0.60;;;;;;;;;;5136062;27;20198;-66
2022/01/20 06:35:38;;;;;;;1.58;0.88;;;;;;;;;;5136041;27;20755;-67
2022/01/20 06:38:05;;;;;;;1.30;0.80;;;;;;;;;;5136487;27;20211;-67
2022/01/20 06:40:33;;;;;;;0.80;0.80;;;;;;;;;;5136140;27;20777;-64
2022/01/20 06:43:02;;;;;;;1.45;0.70;;;;;;;;;;5135283;27;20202;-68
2022/01/20 06:45:29;;;;;;;1.08;0.70;;;;;;;;;;5136138;27;20201;-67
2022/01/20 06:47:57;;;;;;;1.20;0.75;;;;;;;;;;5135298;27;20206;-64
2022/01/20 06:50:25;;;;;;;1.23;0.60;;;;;;;;;;5135958;27;20198;-67
2022/01/20 06:52:53;;;;;;;1.58;1.08;;;;;;;;;;5136455;27;20268;-68
2022/01/20 06:55:20;;;;;;;1.73;0.82;;;;;;;;;;5116044;28;20226;-64
2022/01/20 06:57:47;;;;;;;1.92;0.90;;;;;;;;;;5123434;27;20202;-66
2022/01/20 07:00:16;;;;;;;1.30;0.80;;;;;;;;;;5136209;27;20209;-64
2022/01/20 07:02:44;;;;;;;0.82;0.60;;;;;;;;;;5135858;27;20209;-66
2022/01/20 07:05:13;;;;;;;1.13;0.65;;;;;;;;;;5136459;27;20724;-66
2022/01/20 07:07:42;;;;;;;1.38;0.70;;;;;;;;;;5136361;27;20198;-66
2022/01/20 07:10:10;;;;;;;0.95;0.70;;;;;;;;;;5134879;28;20194;-66
2022/01/20 07:12:38;;;;;;;1.02;0.80;;;;;;;;;;5136362;28;20601;-66
2022/01/20 07:15:06;;;;;;;1.80;1.00;;;;;;;;;;5136744;28;20505;-66
2022/01/20 07:17:33;;;;;;;0.85;0.60;;;;;;;;;;5136361;28;20194;-66
2022/01/20 07:20:01;;;;;;;0.90;0.70;;;;;;;;;;5136590;28;20542;-67
2022/01/20 07:22:28;;;;;;;1.35;0.80;;;;;;;;;;5135891;27;20229;-66
2022/01/20 07:24:57;;;;;;;1.02;0.70;;;;;;;;;;5136443;28;20500;-66
2022/01/20 07:27:24;;;;;;;1.52;0.80;;;;;;;;;;5135535;28;20198;-66
2022/01/20 07:29:52;;;;;;;1.50;0.90;;;;;;;;;;5135187;28;20198;-67
2022/01/20 07:32:20;;;;;;;1.33;0.98;;;;;;;;;;5134464;28;20214;-64
2022/01/20 07:34:47;;;;;;;0.75;0.60;;;;;;;;;;5119092;28;20195;-64
2022/01/20 07:37:15;;;;;;;1.33;0.75;;;;;;;;;;5133326;28;20459;-66
2022/01/20 07:39:42;;;;;;;1.20;0.80;;;;;;;;;;5118972;28;20202;-66
2022/01/20 07:42:11;;;;;;;1.02;0.70;;;;;;;;;;5127658;27;20608;-66
2022/01/20 07:44:38;;;;;;;1.27;0.90;;;;;;;;;;5125159;27;20206;-66
2022/01/20 07:47:06;;;;;;;1.20;0.90;;;;;;;;;;5120245;27;20209;-66
2022/01/20 07:49:33;;;;;;;1.45;0.60;;;;;;;;;;5118425;28;20199;-67
2022/01/20 07:52:00;;;;;;;1.77;0.73;;;;;;;;;;5119514;27;20496;-66
2022/01/20 07:54:27;;;;;;;0.98;0.70;;;;;;;;;;5132823;27;20206;-66
2022/01/20 07:56:55;;;;;;;0.75;0.75;;;;;;;;;;5139318;27;20222;-66
2022/01/20 07:59:24;;;;;;;1.67;0.80;;;;;;;;;;5139167;27;20198;-66
2022/01/20 08:01:52;;;;;;;0.93;0.70;;;;;;;;;;5138612;27;20202;-66
2022/01/20 08:04:19;;;;;;;0.98;0.60;;;;;;;;;;5138545;27;20233;-66
2022/01/20 08:06:47;;;;;;;1.77;0.88;;;;;;;;;;5119112;28;20202;-66
2022/01/20 08:09:14;;;;;;;1.38;0.70;;;;;;;;;;5125170;27;20207;-66
2022/01/20 08:11:42;;;;;;;1.35;0.70;;;;;;;;;;5118516;28;20210;-66
2022/01/20 08:14:10;;;;;;;1.85;0.90;;;;;;;;;;5117930;28;20203;-66
2022/01/20 08:16:38;;;;;;;1.23;0.77;;;;;;;;;;5120759;27;20233;-66
2022/01/20 08:19:06;;;;;;;0.63;0.60;;;;;;;;;;5119208;27;20195;-66
2022/01/20 08:21:33;;;;;;;1.23;0.80;;;;;;;;;;5117950;27;20230;-66
2022/01/20 08:24:00;;;;;;;1.20;0.82;;;;;;;;;;5119155;27;20214;-65
2022/01/20 08:26:28;;;;;;;1.30;0.70;;;;;;;;;;5138207;27;20202;-67
2022/01/20 08:28:55;;;;;;;1.10;0.60;;;;;;;;;;5138570;27;20198;-66
2022/01/20 08:31:22;;;;;;;1.25;0.80;;;;;;;;;;5138584;27;20202;-66
2022/01/20 08:33:51;;;;;;;0.88;0.80;;;;;;;;;;5124573;27;20199;-67
2022/01/20 08:36:18;;;;;;;1.25;0.80;;;;;;;;;;5128817;27;20214;-66
2022/01/20 08:38:46;;;;;;;1.33;0.80;;;;;;;;;;5130151;27;20195;-66
2022/01/20 08:41:13;;;;;;;1.23;0.70;;;;;;;;;;5117745;28;20203;-67
2022/01/20 08:43:40;;;;;;;1.25;0.60;;;;;;;;;;5116925;28;20604;-66
2022/01/20 08:46:08;;;;;;;0.98;0.70;;;;;;;;;;5117754;28;20660;-66
2022/01/20 08:48:35;;;;;;;0.80;0.60;;;;;;;;;;5118432;27;20657;-66
2022/01/20 08:51:04;;;;;;;0.73;0.60;;;;;;;;;;5117453;27;20211;-66
2022/01/20 08:53:32;;;;;;;0.70;0.60;;;;;;;;;;5131104;27;20210;-66
2022/01/20 08:55:59;;;;;;;0.93;0.68;;;;;;;;;;5138104;27;20221;-66
2022/01/20 08:58:27;;;;;;;1.00;0.90;;;;;;;;;;5138473;27;20198;-66
2022/01/20 09:00:54;;;;;;;1.02;0.70;;;;;;;;;;5138044;27;20202;-66
2022/01/20 09:03:23;;;;;;;0.60;0.60;;;;;;;;;;5138048;27;20515;-66
2022/01/20 09:05:50;;;;;;;0.80;0.60;;;;;;;;;;5137787;27;20251;-66
2022/01/20 09:08:19;;;;;;;1.10;0.60;;;;;;;;;;5134382;27;20206;-66
2022/01/20 09:10:53;;;;;;;0.75;0.60;;;;;;;;;;5137591;27;20198;-66
2022/01/20 09:16:05;;;;;;;1.75;0.88;;;;;;;;;;5117098;28;20287;-66
2022/01/20 09:18:33;;;;;;;0.90;0.60;;;;;;;;;;5118690;27;20740;-65
2022/01/20 09:21:01;;;;;;;4.82;3.47;;;;;;;;;;5124488;27;20524;-65
2022/01/20 09:23:31;;;;;;;7.03;5.60;;;;;;;;;;5136749;27;20491;-66
2022/01/20 09:25:59;;;;;;;6.47;4.70;;;;;;;;;;5136765;27;20194;-66
2022/01/20 09:28:27;;;;;;;6.53;4.30;;;;;;;;;;5137317;27;20204;-66
2022/01/20 09:30:58;;;;;;;6.13;3.80;;;;;;;;;;5137193;27;20203;-66
2022/01/20 09:33:27;;;;;;;5.88;4.10;;;;;;;;;;5135714;27;20191;-66
2022/01/20 09:35:55;;;;;;;5.85;4.07;;;;;;;;;;5137794;27;20229;-66
2022/01/20 09:38:23;;;;;;;5.57;4.20;;;;;;;;;;5136218;27;20191;-65
2022/01/20 09:40:53;;;;;;;5.05;4.05;;;;;;;;;;5137435;27;20259;-66
2022/01/20 09:43:21;;;;;;;6.07;3.97;;;;;;;;;;5136455;27;20554;-65
2022/01/20 09:45:50;;;;;;;5.40;4.10;;;;;;;;;;5137680;27;20217;-65
2022/01/20 09:48:18;;;;;;;5.15;3.70;;;;;;;;;;5136761;27;20194;-65
2022/01/20 09:50:46;;;;;;;6.05;3.80;;;;;;;;;;5137301;27;20209;-66
2022/01/20 09:53:14;;;;;;;4.93;3.10;;;;;;;;;;5136899;27;20692;-66
2022/01/20 09:55:41;;;;;;;4.95;3.42;;;;;;;;;;5136358;27;20218;-66
2022/01/20 09:58:10;;;;;;;4.88;3.67;;;;;;;;;;5136958;27;20198;-65
2022/01/20 10:00:38;;;;;;;5.82;3.42;;;;;;;;;;5136990;27;20213;-65
2022/01/20 10:03:08;;;;;;;4.30;3.20;;;;;;;;;;5136154;27;20202;-65
2022/01/20 10:05:37;;;;;;;4.45;3.30;;;;;;;;;;5136742;27;20229;-65
2022/01/20 10:08:07;;;;;;;4.95;3.05;;;;;;;;;;5132777;27;20387;-65
2022/01/20 10:10:42;;;;;;;5.03;3.35;;;;;;;;;;5132665;27;20422;-66
2022/01/20 10:13:10;;;;;;;5.97;3.17;;;;;;;;;;5134798;27;20194;-66
2022/01/20 10:15:38;;;;;;;4.65;3.00;;;;;;;;;;5136312;27;20214;-65
2022/01/20 10:18:07;;;;;;;4.15;2.83;;;;;;;;;;5133673;27;20307;-65
2022/01/20 10:20:34;;;;;;;3.85;2.92;;;;;;;;;;5134062;27;20637;-65
2022/01/20 10:23:02;;;;;;;3.55;2.67;;;;;;;;;;5134595;27;20199;-65
2022/01/20 10:25:34;;;;;;;4.78;2.75;;;;;;;;;;5136005;27;20201;-65
2022/01/20 10:28:02;;;;;;;4.07;2.67;;;;;;;;;;5135329;27;20203;-65
2022/01/20 10:30:31;;;;;;;4.38;2.90;;;;;;;;;;5133523;27;20206;-65
2022/01/20 10:33:00;;;;;;;4.90;2.90;;;;;;;;;;5135151;27;20198;-65
2022/01/20 10:35:31;;;;;;;4.43;2.55;;;;;;;;;;5115923;28;20613;-65
2022/01/20 10:38:02;;;;;;;3.42;2.20;;;;;;;;;;5124934;27;20570;-65
2022/01/20 10:40:29;;;;;;;4.47;2.53;;;;;;;;;;5116087;27;20206;-66
2022/01/20 10:42:57;;;;;;;3.90;2.35;;;;;;;;;;5135184;27;20209;-66
2022/01/20 10:45:25;;;;;;;4.80;2.70;;;;;;;;;;5135207;27;20225;-65
2022/01/20 10:47:55;;;;;;;2.63;2.20;;;;;;;;;;5134819;27;20198;-65
2022/01/20 10:50:26;;;;;;;4.18;2.00;;;;;;;;;;5135398;27;20199;-65
2022/01/20 10:52:54;;;;;;;5.47;2.17;;;;;;;;;;5135364;27;20198;-66
2022/01/20 10:55:23;;;;;;;4.38;2.17;;;;;;;;;;5134124;27;20472;-66
2022/01/20 10:57:50;;;;;;;5.63;2.10;;;;;;;;;;5133134;27;20275;-65
2022/01/20 11:00:19;;;;;;;3.90;2.20;;;;;;;;;;5131041;27;20195;-65
2022/01/20 11:02:50;;;;;;;2.35;1.80;;;;;;;;;;5132768;27;20453;-65
2022/01/20 11:05:19;;;;;;;3.85;2.42;;;;;;;;;;5132239;27;20565;-65
2022/01/20 11:07:46;;;;;;;4.35;2.13;;;;;;;;;;5132227;27;20202;-65
2022/01/20 11:10:14;;;;;;;3.40;1.80;;;;;;;;;;5132531;28;20191;-65
2022/01/20 11:12:42;;;;;;;2.90;1.80;;;;;;;;;;5133967;28;20252;-65
2022/01/20 11:15:11;;;;;;;3.28;1.83;;;;;;;;;;5132741;27;20282;-66
2022/01/20 11:17:40;;;;;;;3.15;1.98;;;;;;;;;;5137525;27;20214;-66
2022/01/20 11:20:09;;;;;;;2.95;1.70;;;;;;;;;;5136929;27;20191;-67
2022/01/20 11:22:38;;;;;;;2.40;2.00;;;;;;;;;;5116870;28;20198;-65
2022/01/20 11:25:06;;;;;;;2.42;1.55;;;;;;;;;;5116123;28;20202;-65
2022/01/20 11:27:38;;;;;;;2.58;1.67;;;;;;;;;;5115757;28;20206;-65
2022/01/20 11:30:15;;;;;;;3.67;1.60;;;;;;;;;;5117131;28;20214;-66
2022/01/20 11:32:45;;;;;;;2.80;1.70;;;;;;;;;;5116487;28;20205;-65
2022/01/20 11:35:13;;;;;;;3.05;1.75;;;;;;;;;;5115155;28;20577;-65
2022/01/20 11:37:43;;;;;;;3.55;1.70;;;;;;;;;;5115544;28;20636;-65
2022/01/20 11:40:13;;;;;;;3.28;1.50;;;;;;;;;;5116155;28;20196;-65
2022/01/20 11:42:40;;;;;;;3.10;1.80;;;;;;;;;;5116088;28;20593;-66
2022/01/20 11:45:25;;;;;;;2.90;1.70;;;;;;;;;;5110108;28;20214;-65
2022/01/20 11:47:52;;;;;;;2.80;1.58;;;;;;;;;;5117768;28;20198;-66
2022/01/20 11:50:20;;;;;;;2.50;1.50;;;;;;;;;;5117368;28;20195;-66
2022/01/20 11:52:49;;;;;;;2.75;1.30;;;;;;;;;;5116801;28;20207;-66
2022/01/20 11:55:18;;;;;;;1.63;1.23;;;;;;;;;;5116152;28;20196;-65
2022/01/20 11:57:45;;;;;;;2.00;1.55;;;;;;;;;;5114326;28;20477;-65
2022/01/20 12:00:21;;;;;;;1.80;1.20;;;;;;;;;;5115838;28;20268;-66
2022/01/20 12:02:49;;;;;;;1.58;1.20;;;;;;;;;;5117372;28;20549;-65
2022/01/20 12:05:21;;;;;;;2.15;1.50;;;;;;;;;;5115289;28;20509;-65
2022/01/20 12:07:50;;;;;;;1.75;1.10;;;;;;;;;;5114565;28;20597;-65
2022/01/20 12:10:18;;;;;;;2.33;1.50;;;;;;;;;;5116123;28;20577;-65
2022/01/20 12:12:45;;;;;;;1.80;1.52;;;;;;;;;;5114662;28;20489;-65
2022/01/20 12:15:14;;;;;;;2.42;1.30;;;;;;;;;;5114848;28;20295;-65
2022/01/20 12:17:49;;;;;;;1.33;1.15;;;;;;;;;;5114777;28;20550;-65
2022/01/20 12:20:16;;;;;;;2.28;1.38;;;;;;;;;;5115398;27;20251;-65
2022/01/20 12:22:44;;;;;;;1.45;1.17;;;;;;;;;;5116003;28;20656;-66
2022/01/20 12:25:17;;;;;;;1.98;1.20;;;;;;;;;;5115458;28;20202;-65
2022/01/20 12:27:45;;;;;;;2.13;1.30;;;;;;;;;;5116640;28;20451;-67
2022/01/20 12:30:22;;;;;;;1.20;1.02;;;;;;;;;;5115965;28;20210;-65
2022/01/20 12:33:00;;;;;;;2.05;1.20;;;;;;;;;;5114750;28;20590;-66
2022/01/20 12:35:36;;;;;;;1.90;1.20;;;;;;;;;;5115552;28;20210;-65
2022/01/20 12:38:03;;;;;;;3.00;1.35;;;;;;;;;;5115186;28;20219;-65
2022/01/20 12:40:34;;;;;;;2.17;1.30;;;;;;;;;;5114445;28;20203;-65
2022/01/20 12:43:01;;;;;;;1.67;1.10;;;;;;;;;;5113532;28;20203;-65
2022/01/20 12:48:15;;;;;;;2.55;1.10;;;;;;;;;;5116144;28;20256;-66
2022/01/20 12:50:52;;;;;;;1.52;1.20;;;;;;;;;;5117409;28;20578;-65
2022/01/20 12:53:20;;;;;;;1.48;0.90;;;;;;;;;;5115796;28;20205;-65
2022/01/20 12:55:53;;;;;;;1.27;1.05;;;;;;;;;;5115926;28;20210;-65
2022/01/20 12:58:20;;;;;;;1.90;1.15;;;;;;;;;;5113647;28;20226;-65
2022/01/20 13:00:58;;;;;;;1.75;1.00;;;;;;;;;;5115436;28;20213;-65
2022/01/20 13:03:34;;;;;;;1.15;0.98;;;;;;;;;;5114517;28;20538;-66
2022/01/20 13:06:01;;;;;;;1.30;1.00;;;;;;;;;;5114946;28;20574;-66
2022/01/20 13:08:32;;;;;;;1.55;1.10;;;;;;;;;;5114195;28;20204;-66
2022/01/20 13:11:04;;;;;;;1.35;0.90;;;;;;;;;;5115866;28;20295;-66
2022/01/20 13:13:32;;;;;;;2.22;0.95;;;;;;;;;;5115199;28;20579;-65
2022/01/20 13:15:59;;;;;;;1.73;0.90;;;;;;;;;;5114829;28;20215;-66
2022/01/20 13:18:26;;;;;;;1.65;1.00;;;;;;;;;;5114159;28;20573;-65
2022/01/20 13:20:58;;;;;;;1.63;0.95;;;;;;;;;;5115330;28;20296;-65
2022/01/20 13:26:12;;;;;;;1.27;0.98;;;;;;;;;;5115643;28;20190;-65
2022/01/20 13:28:39;;;;;;;1.60;1.00;;;;;;;;;;5113731;28;20218;-66
2022/01/20 13:31:17;;;;;;;1.50;1.10;;;;;;;;;;5113100;28;20222;-65
2022/01/20 13:33:44;;;;;;;1.92;0.90;;;;;;;;;;5112126;28;20199;-65
2022/01/20 13:36:11;;;;;;;1.70;0.95;;;;;;;;;;5111825;28;20211;-65
2022/01/20 13:38:45;;;;;;;1.35;0.85;;;;;;;;;;5113701;28;20214;-66
2022/01/20 13:41:14;;;;;;;7.47;6.78;;;;;;;;;;5114990;28;20202;-66
2022/01/20 13:46:36;;;;;;;5.93;5.43;;;;;;;;;;5115258;28;20319;-65
2022/01/20 13:49:10;;;;;;;91.90;85.15;;;;;;;;;;5114920;28;20261;-66
2022/01/20 13:51:37;;;;;;;69.45;63.95;;;;;;;;;;5115115;28;20203;-65
2022/01/20 13:54:05;;;;;;;58.05;53.50;;;;;;;;;;5094868;28;20598;-65
2022/01/20 13:56:34;;;;;;;56.05;51.65;;;;;;;;;;5095505;28;20214;-65
2022/01/20 13:59:05;;;;;;;52.92;48.72;;;;;;;;;;5115175;28;20236;-65
2022/01/20 14:01:32;;;;;;;128.68;118.03;;;;;;;;;;5115283;28;20203;-65
2022/01/20 14:04:00;;;;;;;94.47;86.35;;;;;;;;;;5114625;28;20208;-65
2022/01/20 14:06:27;;;;;;;81.55;74.53;;;;;;;;;;5115163;28;20213;-65
2022/01/20 14:08:54;;;;;;;80.95;73.88;;;;;;;;;;5114371;28;20222;-65
2022/01/20 14:11:22;;;;;;;78.05;71.40;;;;;;;;;;5115428;28;20278;-66
2022/01/20 14:13:51;;;;;;;73.72;67.43;;;;;;;;;;5114750;28;20226;-66
2022/01/20 14:16:18;;;;;;;73.28;67.03;;;;;;;;;;5114909;28;20198;-66
2022/01/20 14:18:47;;;;;;;68.63;62.78;;;;;;;;;;5114104;28;20231;-65
2022/01/20 14:21:17;;;;;;;68.60;62.78;;;;;;;;;;5123849;27;20318;-66
2022/01/20 14:23:45;;;;;;;63.20;57.97;;;;;;;;;;5135153;27;20195;-66
2022/01/20 14:26:21;;;;;;;62.78;57.38;;;;;;;;;;5135297;27;20669;-66
2022/01/20 14:28:51;;;;;;;60.85;55.65;;;;;;;;;;5135150;27;20195;-65
2022/01/20 14:31:18;;;;;;;58.17;53.28;;;;;;;;;;5135663;27;20195;-67
2022/01/20 14:33:46;;;;;;;57.53;52.78;;;;;;;;;;5134454;27;20203;-66
2022/01/20 14:36:13;;;;;;;54.92;50.28;;;;;;;;;;5134792;27;20723;-66
2022/01/20 14:38:41;;;;;;;51.92;47.72;;;;;;;;;;5134871;27;20214;-66
2022/01/20 14:41:08;;;;;;;51.13;46.92;;;;;;;;;;5135105;27;20245;-66
2022/01/20 14:43:37;;;;;;;50.47;46.22;;;;;;;;;;5134617;27;20198;-65
2022/01/20 14:46:08;;;;;;;108.00;97.78;;;;;;;;;;5134746;27;20210;-65
2022/01/20 14:48:35;;;;;;;83.70;76.13;;;;;;;;;;5133559;27;20285;-65
2022/01/20 14:51:04;;;;;;;77.55;70.18;;;;;;;;;;5134808;27;20194;-66
2022/01/20 14:53:31;;;;;;;74.93;68.00;;;;;;;;;;5134194;27;20191;-65
2022/01/20 14:55:59;;;;;;;71.13;64.68;;;;;;;;;;5134363;27;20348;-65
2022/01/20 14:58:29;;;;;;;66.90;60.90;;;;;;;;;;5134019;27;20223;-65
2022/01/20 15:00:56;;;;;;;64.75;58.63;;;;;;;;;;5133091;27;20202;-65
2022/01/20 15:03:25;;;;;;;62.47;56.63;;;;;;;;;;5133094;27;20206;-65
2022/01/20 15:05:52;;;;;;;58.63;53.28;;;;;;;;;;5132156;27;20206;-66
2022/01/20 15:08:22;;;;;;;93.85;85.75;;;;;;;;;;5132945;27;20190;-65
2022/01/20 15:10:50;;;;;;;76.47;69.45;;;;;;;;;;5134425;27;20194;-66
2022/01/20 15:13:17;;;;;;;73.45;66.90;;;;;;;;;;5133295;27;20194;-65
2022/01/20 15:15:44;;;;;;;68.72;62.65;;;;;;;;;;5134909;28;20517;-65
2022/01/20 15:18:12;;;;;;;64.55;58.75;;;;;;;;;;5133831;28;20233;-65
2022/01/20 15:20:41;;;;;;;60.42;55.03;;;;;;;;;;5133517;28;20265;-65
2022/01/20 15:23:08;;;;;;;58.85;53.55;;;;;;;;;;5133858;27;20198;-65
2022/01/20 15:25:35;;;;;;;56.08;51.10;;;;;;;;;;5134985;27;20194;-65
2022/01/20 15:28:03;;;;;;;54.92;50.10;;;;;;;;;;5134023;28;20194;-66
2022/01/20 15:30:30;;;;;;;52.30;47.60;;;;;;;;;;5133837;27;20198;-66
2022/01/20 15:32:58;;;;;;;49.88;45.55;;;;;;;;;;5134643;27;20462;-65
2022/01/20 15:35:25;;;;;;;46.70;42.75;;;;;;;;;;5134132;28;20201;-65
2022/01/20 15:37:54;;;;;;;46.53;42.53;;;;;;;;;;5133531;27;20228;-65
2022/01/20 15:40:22;;;;;;;45.35;41.35;;;;;;;;;;5134627;28;20801;-66
2022/01/20 15:42:49;;;;;;;42.28;38.58;;;;;;;;;;5134025;28;20202;-66
2022/01/20 15:45:16;;;;;;;39.97;36.47;;;;;;;;;;5133945;27;20577;-66
2022/01/20 15:47:44;;;;;;;39.35;35.90;;;;;;;;;;5131586;27;20195;-67
2022/01/20 15:50:12;;;;;;;36.60;33.38;;;;;;;;;;5131907;27;20574;-66